createdAt,value
2022-12-03T07:20:04.930Z,-1.40
2022-12-03T07:22:43.007Z,-1.36
2022-12-03T07:25:23.535Z,-1.38
2022-12-03T07:28:01.461Z,-1.35
2022-12-03T07:30:38.567Z,-1.36
2022-12-03T07:33:15.864Z,-1.37
2022-12-03T07:35:55.442Z,-1.41
2022-12-03T07:38:33.425Z,-1.42
2022-12-03T07:41:11.213Z,-1.47
2022-12-03T07:43:48.594Z,-1.42
2022-12-03T07:46:25.852Z,-1.51
2022-12-03T07:49:03.948Z,-1.47
2022-12-03T07:51:44.565Z,-1.50
2022-12-03T07:54:22.213Z,-1.54
2022-12-03T07:57:01.659Z,-1.53
2022-12-03T07:59:39.294Z,-1.52
2022-12-03T08:02:21.216Z,-1.51
2022-12-03T08:04:59.784Z,-1.53
2022-12-03T08:07:39.752Z,-1.50
2022-12-03T08:10:18.175Z,-1.51
2022-12-03T08:12:55.077Z,-1.48
2022-12-03T08:15:39.040Z,-1.46
2022-12-03T08:18:33.769Z,-1.42
2022-12-03T08:21:25.049Z,-1.41
2022-12-03T08:24:14.894Z,-1.41
2022-12-03T08:26:53.355Z,-1.40
2022-12-03T08:29:30.299Z,-1.40
2022-12-03T08:32:10.033Z,-1.35
2022-12-03T08:34:48.099Z,-1.33
2022-12-03T08:37:25.480Z,-1.32
2022-12-03T08:40:04.867Z,-1.32
2022-12-03T08:42:44.935Z,-1.31
2022-12-03T08:45:43.547Z,-1.30
2022-12-03T08:48:37.165Z,-1.32
2022-12-03T08:51:24.171Z,-1.33
2022-12-03T08:54:23.234Z,-1.33
2022-12-03T08:57:04.339Z,-1.33
2022-12-03T08:59:45.463Z,-1.31
2022-12-03T09:02:32.120Z,-1.27
2022-12-03T09:05:19.588Z,-1.26
2022-12-03T09:07:56.471Z,-1.26
2022-12-03T09:10:33.716Z,-1.23
2022-12-03T09:13:13.105Z,-1.20
2022-12-03T09:15:50.347Z,-1.19
2022-12-03T09:18:27.079Z,-1.18
2022-12-03T09:21:04.463Z,-1.16
2022-12-03T09:23:41.453Z,-1.15
2022-12-03T09:26:18.767Z,-1.11
2022-12-03T09:28:58.493Z,-1.09
2022-12-03T09:31:36.221Z,-1.11
2022-12-03T09:34:13.632Z,-1.08
2022-12-03T09:36:50.827Z,-1.08
2022-12-03T09:39:27.647Z,-1.07
2022-12-03T09:42:05.456Z,-1.08
2022-12-03T09:44:45.058Z,-1.03
2022-12-03T09:47:22.656Z,-1.01
2022-12-03T09:50:01.373Z,-1.03
2022-12-03T09:52:39.087Z,-1.06
2022-12-03T09:55:21.117Z,-1.03
2022-12-03T09:58:01.164Z,-1.06
2022-12-03T10:00:40.665Z,-1.02
2022-12-03T10:03:26.533Z,-1.03
2022-12-03T10:06:06.736Z,-1.04
2022-12-03T10:08:43.985Z,-0.98
2022-12-03T10:11:23.458Z,-0.98
2022-12-03T10:14:02.776Z,-0.99
2022-12-03T10:16:43.307Z,-0.98
2022-12-03T10:19:27.359Z,-0.93
2022-12-03T10:22:04.169Z,-0.92
2022-12-03T10:24:42.967Z,-0.94
2022-12-03T10:27:32.586Z,-0.90
2022-12-03T10:30:22.637Z,-0.89
2022-12-03T10:33:02.943Z,-0.90
2022-12-03T10:35:43.905Z,-0.88
2022-12-03T10:38:25.545Z,-0.84
2022-12-03T10:41:26.106Z,-0.85
2022-12-03T10:44:18.946Z,-0.82
2022-12-03T10:47:11.833Z,-0.81
2022-12-03T10:50:07.297Z,-0.78
2022-12-03T10:52:44.687Z,-0.79
2022-12-03T10:55:22.989Z,-0.79
2022-12-03T10:58:00.739Z,-0.77
2022-12-03T11:00:38.228Z,-0.77
2022-12-03T11:03:24.517Z,-0.75
2022-12-03T11:06:05.942Z,-0.76
2022-12-03T11:08:52.982Z,-0.74
2022-12-03T11:11:34.601Z,-0.73
2022-12-03T11:14:21.228Z,-0.72
2022-12-03T11:17:14.405Z,-0.67
2022-12-03T11:19:52.998Z,-0.67
2022-12-03T11:22:47.994Z,-0.63
2022-12-03T11:25:51.139Z,-0.63
2022-12-03T11:28:54.684Z,-0.60
2022-12-03T11:31:44.766Z,-0.60
2022-12-03T11:34:53.019Z,-0.58
2022-12-03T11:37:33.953Z,-0.60
2022-12-03T11:40:39.744Z,-0.59
2022-12-03T11:43:17.346Z,-0.58
2022-12-03T11:45:57.269Z,-0.61
2022-12-03T11:48:37.262Z,-0.61
2022-12-03T11:51:19.255Z,-0.56
2022-12-03T11:54:02.715Z,-0.56
2022-12-03T11:56:39.435Z,-0.57
2022-12-03T11:59:17.756Z,-0.56
2022-12-03T12:01:54.677Z,-0.52
2022-12-03T12:04:38.184Z,-0.53
2022-12-03T12:07:15.024Z,-0.51
2022-12-03T12:09:58.031Z,-0.47
2022-12-03T12:12:49.003Z,-0.45
2022-12-03T12:15:47.305Z,-0.44
2022-12-03T12:18:41.863Z,-0.44
2022-12-03T12:21:48.202Z,-0.42
2022-12-03T12:24:38.517Z,-0.42
2022-12-03T12:27:20.563Z,-0.44
2022-12-03T12:30:01.511Z,-0.42
2022-12-03T12:32:48.089Z,-0.42
2022-12-03T12:35:32.892Z,-0.40
2022-12-03T12:38:20.641Z,-0.39
2022-12-03T12:40:57.551Z,-0.39
2022-12-03T12:43:39.938Z,-0.39
2022-12-03T12:46:46.727Z,-0.37
2022-12-03T12:49:21.937Z,-0.36
2022-12-03T12:52:01.497Z,-0.36
2022-12-03T12:54:41.043Z,-0.35
2022-12-03T12:57:26.148Z,-0.36
2022-12-03T13:00:09.927Z,-0.39
2022-12-03T13:02:50.673Z,-0.40
2022-12-03T13:05:29.879Z,-0.39
2022-12-03T13:08:10.385Z,-0.39
2022-12-03T13:10:47.738Z,-0.39
2022-12-03T13:13:43.307Z,-0.34
2022-12-03T13:16:37.039Z,-0.34
2022-12-03T13:19:26.169Z,-0.34
2022-12-03T13:22:14.077Z,-0.35
2022-12-03T13:24:53.419Z,-0.34
2022-12-03T13:27:33.027Z,-0.34
2022-12-03T13:30:20.367Z,-0.32
2022-12-03T13:33:02.478Z,-0.35
2022-12-03T13:35:40.375Z,-0.38
2022-12-03T13:38:20.436Z,-0.37
2022-12-03T13:41:04.992Z,-0.39
2022-12-03T13:43:44.587Z,-0.39
2022-12-03T13:46:22.554Z,-0.39
2022-12-03T13:49:02.887Z,-0.40
2022-12-03T13:51:43.127Z,-0.39
2022-12-03T13:54:26.026Z,-0.39
2022-12-03T13:57:06.251Z,-0.43
2022-12-03T13:59:43.658Z,-0.44
2022-12-03T14:02:20.582Z,-0.42
2022-12-03T14:05:00.934Z,-0.41
2022-12-03T14:07:37.960Z,-0.41
2022-12-03T14:10:17.532Z,-0.39
2022-12-03T14:12:54.362Z,-0.39
2022-12-03T14:15:31.609Z,-0.43
2022-12-03T14:18:09.241Z,-0.44
2022-12-03T14:20:49.322Z,-0.43
2022-12-03T14:23:26.211Z,-0.45
2022-12-03T14:26:04.043Z,-0.49
2022-12-03T14:28:41.423Z,-0.49
2022-12-03T14:31:18.669Z,-0.50
2022-12-03T14:33:56.259Z,-0.51
2022-12-03T14:36:36.050Z,-0.49
2022-12-03T14:39:13.447Z,-0.52
2022-12-03T14:42:03.090Z,-0.54
2022-12-03T14:44:40.250Z,-0.56
2022-12-03T14:47:19.253Z,-0.56
2022-12-03T14:49:56.451Z,-0.58
2022-12-03T14:52:37.078Z,-0.62
2022-12-03T14:55:14.023Z,-0.69
2022-12-03T14:57:51.299Z,-0.73
2022-12-03T15:00:28.280Z,-0.74
2022-12-03T15:03:05.440Z,-0.76
2022-12-03T15:05:42.906Z,-0.82
2022-12-03T15:08:24.827Z,-0.81
2022-12-03T15:11:01.956Z,-0.83
2022-12-03T15:13:44.987Z,-0.84
2022-12-03T15:16:24.088Z,-0.85
2022-12-03T15:19:04.386Z,-0.88
2022-12-03T15:21:41.196Z,-0.91
2022-12-03T15:24:21.091Z,-0.90
2022-12-03T15:26:57.991Z,-0.92
2022-12-03T15:29:35.549Z,-0.92
2022-12-03T15:32:12.321Z,-0.90
2022-12-03T15:34:51.930Z,-0.91
2022-12-03T15:37:30.040Z,-0.93
2022-12-03T15:40:12.281Z,-0.92
2022-12-03T15:42:54.205Z,-0.92
2022-12-03T15:45:34.765Z,-0.96
2022-12-03T15:48:14.074Z,-0.97
2022-12-03T15:50:51.456Z,-0.98
2022-12-03T15:53:28.988Z,-1.02
2022-12-03T15:56:10.254Z,-1.03
2022-12-03T15:58:47.663Z,-1.07
2022-12-03T16:01:25.961Z,-1.10
2022-12-03T16:04:09.939Z,-1.07
2022-12-03T16:06:52.495Z,-1.08
2022-12-03T16:09:31.316Z,-1.08
2022-12-03T16:12:12.176Z,-1.06
2022-12-03T16:14:50.046Z,-1.05
2022-12-03T16:17:27.715Z,-1.06
2022-12-03T16:20:06.843Z,-1.07
2022-12-03T16:22:44.877Z,-1.06
2022-12-03T16:25:26.715Z,-1.07
2022-12-03T16:28:06.787Z,-1.05
2022-12-03T16:30:49.385Z,-1.07
2022-12-03T16:33:34.386Z,-1.05
2022-12-03T16:36:13.624Z,-1.06
2022-12-03T16:38:54.644Z,-1.05
2022-12-03T16:41:33.794Z,-1.04
2022-12-03T16:44:31.201Z,-1.04
2022-12-03T16:47:10.045Z,-1.02
2022-12-03T16:49:48.260Z,-1.05
2022-12-03T16:52:25.505Z,-1.09
2022-12-03T16:55:04.746Z,-1.09
2022-12-03T16:57:41.748Z,-1.06
2022-12-03T17:00:22.977Z,-1.04
2022-12-03T17:02:59.996Z,-1.02
2022-12-03T17:05:37.700Z,-1.02
2022-12-03T17:08:15.221Z,-1.00
2022-12-03T17:10:52.935Z,-0.99
2022-12-03T17:13:30.076Z,-0.99
2022-12-03T17:16:10.412Z,-0.97
2022-12-03T17:18:47.214Z,-0.94
2022-12-03T17:21:24.437Z,-0.97
2022-12-03T17:24:01.511Z,-0.96
2022-12-03T17:26:38.751Z,-0.93
2022-12-03T17:29:15.677Z,-0.93
2022-12-03T17:31:56.152Z,-0.90
2022-12-03T17:34:33.421Z,-0.91
2022-12-03T17:37:10.959Z,-0.91
2022-12-03T17:39:47.861Z,-0.90
2022-12-03T17:42:25.057Z,-0.92
2022-12-03T17:45:01.858Z,-0.90
2022-12-03T17:47:42.637Z,-0.89
2022-12-03T17:50:20.728Z,-0.90
2022-12-03T17:52:58.922Z,-0.88
2022-12-03T17:55:44.048Z,-0.88
2022-12-03T17:58:24.083Z,-0.86
2022-12-03T18:01:03.067Z,-0.89
2022-12-03T18:03:45.970Z,-0.88
2022-12-03T18:06:24.329Z,-0.89
2022-12-03T18:09:04.036Z,-0.88
2022-12-03T18:11:41.677Z,-0.88
2022-12-03T18:14:20.003Z,-0.86
2022-12-03T18:16:57.212Z,-0.85
2022-12-03T18:19:39.085Z,-0.82
2022-12-03T18:22:17.720Z,-0.84
2022-12-03T18:24:55.926Z,-0.83
2022-12-03T18:27:33.601Z,-0.82
2022-12-03T18:30:12.706Z,-0.84
2022-12-03T18:32:51.505Z,-0.85
2022-12-03T18:35:31.815Z,-0.82
2022-12-03T18:38:08.868Z,-0.86
2022-12-03T18:40:48.555Z,-0.84
2022-12-03T18:43:26.285Z,-0.83
2022-12-03T18:46:04.801Z,-0.81
2022-12-03T18:48:42.581Z,-0.82
2022-12-03T18:51:25.850Z,-0.85
2022-12-03T18:54:04.136Z,-0.84
2022-12-03T18:56:44.450Z,-0.84
2022-12-03T18:59:21.780Z,-0.85
2022-12-03T19:01:59.901Z,-0.84
2022-12-03T19:04:37.885Z,-0.81
2022-12-03T19:07:19.049Z,-0.81
2022-12-03T19:10:00.984Z,-0.80
2022-12-03T19:12:38.770Z,-0.79
2022-12-03T19:15:19.538Z,-0.78
2022-12-03T19:17:57.189Z,-0.77
2022-12-03T19:20:35.139Z,-0.75
2022-12-03T19:23:15.471Z,-0.72
2022-12-03T19:26:00.519Z,-0.74
2022-12-03T19:28:39.262Z,-0.73
2022-12-03T19:31:19.852Z,-0.71
2022-12-03T19:33:58.044Z,-0.72
2022-12-03T19:36:36.299Z,-0.70
2022-12-03T19:39:21.610Z,-0.69
2022-12-03T19:42:01.423Z,-0.70
2022-12-03T19:44:40.829Z,-0.69
2022-12-03T19:47:18.130Z,-0.67
2022-12-03T19:49:57.569Z,-0.63
2022-12-03T19:52:40.140Z,-0.65
2022-12-03T19:55:20.798Z,-0.68
2022-12-03T19:57:58.470Z,-0.68
2022-12-03T20:00:37.710Z,-0.64
2022-12-03T20:03:15.410Z,-0.63
2022-12-03T20:05:53.719Z,-0.63
2022-12-03T20:08:31.451Z,-0.60
2022-12-03T20:11:18.198Z,-0.58
2022-12-03T20:14:07.869Z,-0.59
2022-12-03T20:16:46.908Z,-0.58
2022-12-03T20:19:25.168Z,-0.57
2022-12-03T20:22:03.837Z,-0.56
2022-12-03T20:24:41.557Z,-0.59
2022-12-03T20:27:23.143Z,-0.58
2022-12-03T20:30:00.878Z,-0.55
2022-12-03T20:32:45.045Z,-0.56
2022-12-03T20:35:25.781Z,-0.54
2022-12-03T20:38:04.992Z,-0.54
2022-12-03T20:40:42.668Z,-0.52
2022-12-03T20:43:23.427Z,-0.51
2022-12-03T20:46:02.853Z,-0.53
2022-12-03T20:48:41.872Z,-0.48
2022-12-03T20:51:21.074Z,-0.49
2022-12-03T20:54:00.497Z,-0.50
2022-12-03T20:56:42.772Z,-0.48
2022-12-03T20:59:23.265Z,-0.51
2022-12-03T21:02:04.035Z,-0.49
2022-12-03T21:04:45.327Z,-0.48
2022-12-03T21:07:23.191Z,-0.47
2022-12-03T21:10:00.562Z,-0.47
2022-12-03T21:12:38.211Z,-0.46
2022-12-03T21:15:18.383Z,-0.44
2022-12-03T21:17:56.256Z,-0.46
2022-12-03T21:20:34.165Z,-0.45
2022-12-03T21:23:12.256Z,-0.44
2022-12-03T21:25:49.873Z,-0.47
2022-12-03T21:28:27.108Z,-0.46
2022-12-03T21:31:10.707Z,-0.43
2022-12-03T21:33:48.166Z,-0.44
2022-12-03T21:36:25.834Z,-0.44
2022-12-03T21:39:03.464Z,-0.44
2022-12-03T21:42:34.749Z,-0.44
2022-12-03T21:44:44.151Z,-0.42
2022-12-03T21:47:37.038Z,-0.44
2022-12-03T21:50:18.701Z,-0.41
2022-12-03T21:52:56.472Z,-0.39
2022-12-03T21:55:34.923Z,-0.39
2022-12-03T21:58:14.529Z,-0.39
2022-12-03T22:00:56.731Z,-0.37
2022-12-03T22:03:37.232Z,-0.35
2022-12-03T22:06:15.281Z,-0.35
2022-12-03T22:08:54.346Z,-0.35
2022-12-03T22:11:31.683Z,-0.34
2022-12-03T22:14:12.625Z,-0.33
2022-12-03T22:16:49.526Z,-0.40
2022-12-03T22:19:29.936Z,-0.39
2022-12-03T22:22:06.843Z,-0.41
2022-12-03T22:24:46.015Z,-0.41
2022-12-03T22:27:23.857Z,-0.39
2022-12-03T22:30:00.952Z,-0.40
2022-12-03T22:32:37.663Z,-0.37
2022-12-03T22:35:17.653Z,-0.36
2022-12-03T22:37:54.392Z,-0.34
2022-12-03T22:40:31.723Z,-0.35
2022-12-03T22:43:08.523Z,-0.33
2022-12-03T22:45:46.170Z,-0.32
2022-12-03T22:48:23.868Z,-0.33
2022-12-03T22:51:06.150Z,-0.33
2022-12-03T22:53:45.556Z,-0.33
2022-12-03T22:56:26.278Z,-0.30
2022-12-03T22:59:05.373Z,-0.29
2022-12-03T23:01:44.313Z,-0.26
2022-12-03T23:04:21.354Z,-0.28
2022-12-03T23:07:01.287Z,-0.27
2022-12-03T23:09:38.022Z,-0.27
